Switzerland, Florida
Current Conditions -  °F | °C
As of 3:53 AM on Friday 31 Oct 2014 (Local Time) from KNIP Reporting Station
Scattered Clouds Scattered Clouds  
Wind Chill: 64°   Ceiling: Unl
Heat Index: 64°   Visibility: 10mi
Dew Point: 55°   Wind: 5mph
Humidity: 72%   Direction: 290°WNW
Pressure: 29.86"   Gusts: NA
Location:  30.0735°N, 81.5808°W
Report Text: KNIP 310753Z 29004KT 10SM SCT020 18/13 A2986 RMK AO2 SLP106 T01780128 $
Loading
Personal Weather Stations






























Interactive Weather Map
Tropical Storm Tracking
New forecast layout! Learn more

10-Day Weather Forecast

Advertisements
Track Severe Weather on mobile